createdAt,value
2018-04-28T00:01:00.238Z,3.60
2018-04-28T00:03:29.490Z,3.40
2018-04-28T00:05:58.031Z,3.20
2018-04-28T00:08:35.814Z,3.30
2018-04-28T00:11:04.380Z,3.17
2018-04-28T00:13:33.598Z,3.47
2018-04-28T00:16:14.372Z,3.27
2018-04-28T00:19:02.007Z,3.40
2018-04-28T00:21:33.158Z,3.43
2018-04-28T00:24:01.340Z,3.00
2018-04-28T00:26:31.045Z,2.83
2018-04-28T00:29:05.107Z,2.60
2018-04-28T00:31:40.107Z,2.83
2018-04-28T00:34:08.699Z,2.70
2018-04-28T00:39:39.095Z,2.80
2018-04-28T00:42:10.859Z,2.60
2018-04-28T00:44:39.462Z,2.60
2018-04-28T00:47:14.151Z,2.57
2018-04-28T00:49:44.250Z,2.53
2018-04-28T00:52:12.911Z,2.50
2018-04-28T00:54:46.346Z,2.60
2018-04-28T00:57:16.229Z,2.60
2018-04-28T00:59:51.502Z,2.67
2018-04-28T01:02:20.175Z,2.80
2018-04-28T01:04:48.804Z,3.00
2018-04-28T01:07:23.433Z,2.80
2018-04-28T01:10:10.389Z,2.73
2018-04-28T01:12:39.227Z,3.00
2018-04-28T01:15:14.336Z,3.20
2018-04-28T01:17:54.768Z,2.80
2018-04-28T01:20:36.451Z,2.90
2018-04-28T01:23:10.109Z,3.03
2018-04-28T01:25:42.395Z,3.10
2018-04-28T01:31:24.875Z,2.87
2018-04-28T01:34:01.696Z,2.20
2018-04-28T01:36:33.803Z,2.80
2018-04-28T01:39:06.319Z,2.57
2018-04-28T01:41:41.959Z,2.60
2018-04-28T01:44:16.546Z,2.67
2018-04-28T01:46:53.211Z,2.70
2018-04-28T01:49:36.434Z,2.47
2018-04-28T01:52:06.342Z,2.70
2018-04-28T01:54:50.410Z,2.40
2018-04-28T01:57:24.570Z,2.67
2018-04-28T01:59:57.000Z,2.87
2018-04-28T02:02:51.219Z,2.90
2018-04-28T02:05:21.926Z,2.47
2018-04-28T02:07:50.821Z,2.73
2018-04-28T02:10:24.383Z,2.93
2018-04-28T02:13:13.203Z,3.30
2018-04-28T02:15:44.988Z,2.47
2018-04-28T02:18:36.152Z,2.83
2018-04-28T02:21:23.969Z,2.43
2018-04-28T02:26:49.474Z,2.97
2018-04-28T02:32:16.188Z,2.50
2018-04-28T02:34:50.631Z,2.70
2018-04-28T02:40:27.618Z,2.60
2018-04-28T02:42:59.074Z,2.80
2018-04-28T02:45:43.896Z,2.20
2018-04-28T02:48:13.795Z,2.80
2018-04-28T02:50:45.119Z,2.27
2018-04-28T02:56:25.202Z,2.40
2018-04-28T02:58:56.525Z,2.63
2018-04-28T03:01:45.858Z,2.10
2018-04-28T03:04:17.918Z,2.70
2018-04-28T03:06:54.595Z,2.90
2018-04-28T03:09:28.343Z,2.40
2018-04-28T03:11:59.552Z,2.33
2018-04-28T03:14:28.957Z,2.27
2018-04-28T03:16:58.214Z,2.70
2018-04-28T03:19:29.023Z,2.57
2018-04-28T03:21:57.607Z,2.33
2018-04-28T03:24:48.025Z,2.60
2018-04-28T03:27:21.106Z,2.73
2018-04-28T03:32:46.490Z,2.40
2018-04-28T03:35:17.811Z,2.80
2018-04-28T03:37:53.167Z,2.60
2018-04-28T03:40:23.534Z,3.13
2018-04-28T03:43:00.002Z,2.30
2018-04-28T03:45:40.150Z,3.10
2018-04-28T03:48:28.835Z,3.30
2018-04-28T03:51:09.058Z,3.00
2018-04-28T03:53:45.154Z,3.10
2018-04-28T03:56:14.260Z,3.13
2018-04-28T03:58:55.629Z,2.80
2018-04-28T04:01:35.919Z,3.27
2018-04-28T04:04:06.155Z,2.97
2018-04-28T04:06:56.707Z,3.13
2018-04-28T04:09:30.143Z,3.07
2018-04-28T04:12:02.009Z,2.70
2018-04-28T04:14:36.710Z,3.03
2018-04-28T04:17:29.143Z,3.00
2018-04-28T04:20:09.966Z,3.10
2018-04-28T04:22:48.766Z,2.67
2018-04-28T04:25:30.035Z,3.00
2018-04-28T04:28:03.364Z,2.43
2018-04-28T04:30:38.978Z,2.80
2018-04-28T04:33:13.268Z,2.50
2018-04-28T04:35:43.007Z,2.80
2018-04-28T04:38:14.246Z,2.73
2018-04-28T04:41:02.340Z,3.40
2018-04-28T04:43:38.271Z,3.60
2018-04-28T04:46:16.834Z,3.70
2018-04-28T04:52:27.623Z,3.90
2018-04-28T04:54:56.151Z,4.20
2018-04-28T04:57:51.312Z,3.90
2018-04-28T05:03:24.387Z,3.57
2018-04-28T05:08:53.410Z,4.27
2018-04-28T05:11:28.621Z,4.17
2018-04-28T05:14:28.239Z,4.37
2018-04-28T05:17:04.514Z,3.13
2018-04-28T05:19:38.814Z,3.40
2018-04-28T05:22:16.503Z,2.73
2018-04-28T05:24:49.846Z,3.17
2018-04-28T05:27:23.281Z,2.90
2018-04-28T05:29:55.356Z,3.37
2018-04-28T05:35:50.379Z,3.10
2018-04-28T05:38:29.034Z,3.00
2018-04-28T05:41:14.066Z,2.87
2018-04-28T05:43:48.542Z,3.23
2018-04-28T05:46:27.619Z,3.17
2018-04-28T05:49:04.917Z,3.37
2018-04-28T05:54:55.131Z,3.60
2018-04-28T05:57:44.459Z,3.80
2018-04-28T06:00:25.285Z,3.30
2018-04-28T06:03:10.636Z,3.03
2018-04-28T06:06:01.199Z,3.30
2018-04-28T06:08:32.126Z,2.70
2018-04-28T06:11:13.293Z,3.07
2018-04-28T06:13:54.237Z,3.07
2018-04-28T06:16:34.354Z,3.17
2018-04-28T06:19:07.382Z,3.10
2018-04-28T06:21:35.979Z,3.33
2018-04-28T06:24:04.504Z,3.23
2018-04-28T06:26:33.586Z,3.30
2018-04-28T06:29:02.074Z,3.10
2018-04-28T06:31:31.150Z,3.20
2018-04-28T06:34:00.300Z,3.33
2018-04-28T06:36:29.045Z,3.40
2018-04-28T06:38:58.094Z,3.33
2018-04-28T06:41:26.283Z,3.13
2018-04-28T06:43:56.087Z,3.17
2018-04-28T06:46:25.132Z,4.00
2018-04-28T06:48:54.271Z,4.20
2018-04-28T06:51:23.542Z,3.53
2018-04-28T06:53:51.746Z,3.23
2018-04-28T06:56:20.331Z,4.10
2018-04-28T06:58:48.897Z,3.17
2018-04-28T07:01:17.539Z,3.43
2018-04-28T07:03:46.065Z,3.23
2018-04-28T07:06:14.656Z,3.10
2018-04-28T07:08:43.220Z,3.37
2018-04-28T07:11:12.359Z,2.97
2018-04-28T07:13:41.382Z,3.43
2018-04-28T07:16:10.990Z,2.67
2018-04-28T07:18:40.654Z,3.30
2018-04-28T07:21:09.667Z,2.93
2018-04-28T07:23:38.538Z,3.53
2018-04-28T07:26:07.914Z,2.73
2018-04-28T07:28:36.963Z,2.73
2018-04-28T07:31:06.623Z,3.03
2018-04-28T07:33:36.435Z,3.33
2018-04-28T07:36:07.139Z,3.03
2018-04-28T07:38:35.555Z,2.90
2018-04-28T07:41:06.380Z,3.27
2018-04-28T07:43:34.545Z,2.90
2018-04-28T07:46:03.222Z,3.00
2018-04-28T07:48:32.154Z,3.70
2018-04-28T07:51:00.829Z,3.13
2018-04-28T07:53:29.216Z,3.43
2018-04-28T07:55:58.057Z,3.23
2018-04-28T07:58:26.480Z,3.40
2018-04-28T08:00:55.420Z,3.10
2018-04-28T08:03:24.366Z,3.47
2018-04-28T08:05:54.457Z,3.23
2018-04-28T08:08:22.603Z,3.53
2018-04-28T08:10:52.122Z,4.03
2018-04-28T08:13:21.562Z,3.30
2018-04-28T08:15:51.259Z,2.97
2018-04-28T08:18:20.196Z,2.70
2018-04-28T08:20:48.799Z,3.20
2018-04-28T08:23:17.379Z,3.00
2018-04-28T08:25:45.587Z,3.40
2018-04-28T08:28:14.215Z,3.50
2018-04-28T08:30:42.845Z,2.93
2018-04-28T08:33:11.371Z,3.37
2018-04-28T08:35:40.823Z,3.10
2018-04-28T08:38:09.767Z,2.63
2018-04-28T08:40:38.410Z,3.13
2018-04-28T08:43:06.560Z,3.73
2018-04-28T08:45:35.280Z,3.60
2018-04-28T08:48:05.034Z,2.50
2018-04-28T08:50:33.452Z,2.80
2018-04-28T08:53:02.085Z,3.20
2018-04-28T08:55:30.608Z,2.83
2018-04-28T08:57:59.747Z,3.40
2018-04-28T09:00:30.970Z,2.57
2018-04-28T09:02:59.591Z,2.87
2018-04-28T09:05:28.667Z,2.90
2018-04-28T09:07:57.615Z,2.80
2018-04-28T09:10:26.358Z,3.40
2018-04-28T09:12:55.293Z,2.93
2018-04-28T09:15:23.527Z,2.60
2018-04-28T09:17:52.144Z,2.63
2018-04-28T09:20:20.735Z,3.00
2018-04-28T09:22:49.197Z,3.13
2018-04-28T09:25:17.782Z,2.90
2018-04-28T09:27:46.314Z,2.80
2018-04-28T09:30:14.521Z,3.03
2018-04-28T09:32:43.088Z,2.63
2018-04-28T09:35:12.242Z,2.40
2018-04-28T09:37:40.871Z,2.60
2018-04-28T09:40:09.292Z,2.80
2018-04-28T09:42:37.714Z,3.00
2018-04-28T09:45:06.134Z,2.70
2018-04-28T09:47:35.374Z,3.07
2018-04-28T09:50:05.892Z,3.30
2018-04-28T09:52:35.367Z,2.70
2018-04-28T09:55:03.669Z,2.90
2018-04-28T09:57:33.555Z,3.20
2018-04-28T10:00:13.895Z,2.53
2018-04-28T10:02:42.122Z,2.90
2018-04-28T10:05:12.200Z,3.30
2018-04-28T10:07:40.360Z,3.47
2018-04-28T10:10:08.530Z,3.40
2018-04-28T10:12:38.274Z,2.60
2018-04-28T10:15:06.443Z,2.77
2018-04-28T10:17:35.247Z,2.93
2018-04-28T10:20:03.538Z,2.80
2018-04-28T10:22:31.621Z,2.73
2018-04-28T10:25:00.301Z,3.00
2018-04-28T10:27:28.442Z,2.40
2018-04-28T10:29:56.715Z,2.63
2018-04-28T10:32:25.276Z,2.60
2018-04-28T10:34:54.194Z,2.57
2018-04-28T10:37:23.242Z,2.80
2018-04-28T10:39:51.755Z,2.90
2018-04-28T10:42:21.534Z,2.50
2018-04-28T10:44:50.177Z,2.80
2018-04-28T10:47:18.359Z,2.70
2018-04-28T10:49:47.444Z,2.50
2018-04-28T10:52:15.935Z,3.10
2018-04-28T10:54:45.103Z,3.10
2018-04-28T10:57:14.090Z,3.07
2018-04-28T10:59:43.345Z,2.77
2018-04-28T11:02:12.295Z,2.90
2018-04-28T11:04:41.202Z,2.17
2018-04-28T11:07:09.370Z,2.60
2018-04-28T11:09:37.940Z,2.60
2018-04-28T11:12:06.082Z,2.00
2018-04-28T11:14:34.263Z,2.40
2018-04-28T11:17:03.413Z,3.00
2018-04-28T11:19:32.375Z,2.40
2018-04-28T11:22:02.963Z,2.27
2018-04-28T11:24:32.110Z,2.20
2018-04-28T11:27:00.544Z,2.60
2018-04-28T11:29:29.070Z,1.93
2018-04-28T11:31:57.897Z,2.47
2018-04-28T11:34:27.051Z,2.77
2018-04-28T11:36:56.494Z,2.30
2018-04-28T11:39:25.058Z,2.60
2018-04-28T11:41:53.474Z,2.23
2018-04-28T11:44:22.407Z,2.93
2018-04-28T11:46:50.840Z,2.40
2018-04-28T11:49:19.382Z,2.20
2018-04-28T11:51:49.834Z,2.23
2018-04-28T11:54:18.263Z,2.40
2018-04-28T11:56:48.179Z,2.07
2018-04-28T11:59:16.381Z,1.80
2018-04-28T12:01:44.770Z,2.20
2018-04-28T12:04:14.069Z,1.80
2018-04-28T12:06:42.699Z,2.00
2018-04-28T12:09:11.329Z,2.20
2018-04-28T12:11:40.169Z,2.00
2018-04-28T12:14:09.320Z,1.90
2018-04-28T12:16:38.159Z,2.03
2018-04-28T12:19:06.322Z,2.17
2018-04-28T12:21:36.138Z,2.10
2018-04-28T12:24:04.559Z,2.60
2018-04-28T12:26:33.135Z,2.67
2018-04-28T12:29:01.728Z,2.17
2018-04-28T12:31:30.253Z,2.23
2018-04-28T12:33:58.458Z,2.00
2018-04-28T12:36:26.955Z,2.00
2018-04-28T12:38:55.138Z,1.97
2018-04-28T12:41:23.625Z,1.90
2018-04-28T12:43:52.254Z,2.20
2018-04-28T12:46:20.780Z,2.53
2018-04-28T12:48:49.631Z,2.20
2018-04-28T12:51:18.106Z,2.53
2018-04-28T12:53:46.971Z,2.73
2018-04-28T12:56:15.174Z,2.57
2018-04-28T12:58:43.812Z,2.73
2018-04-28T13:01:11.990Z,2.73
2018-04-28T13:03:40.738Z,2.40
2018-04-28T13:06:09.035Z,2.27
2018-04-28T13:08:38.126Z,3.00
2018-04-28T13:11:06.770Z,2.43
2018-04-28T13:13:35.478Z,2.63
2018-04-28T13:16:04.131Z,2.20
2018-04-28T13:18:32.908Z,2.57
2018-04-28T13:21:01.455Z,2.40
2018-04-28T13:23:30.190Z,2.57
2018-04-28T13:25:58.375Z,2.40
2018-04-28T13:28:27.040Z,2.63
2018-04-28T13:30:56.225Z,2.50
2018-04-28T13:33:24.394Z,2.60
2018-04-28T13:35:53.032Z,2.53
2018-04-28T13:38:22.846Z,2.00
2018-04-28T13:40:51.894Z,2.50
2018-04-28T13:43:20.718Z,2.07
2018-04-28T13:45:49.870Z,2.40
2018-04-28T13:48:18.110Z,2.20
2018-04-28T13:50:46.239Z,2.73
2018-04-28T13:53:16.090Z,2.40
2018-04-28T13:55:44.678Z,2.60
2018-04-28T13:58:13.107Z,2.73
2018-04-28T14:00:41.315Z,2.77
2018-04-28T14:03:09.747Z,2.60
2018-04-28T14:05:38.304Z,2.80
2018-04-28T14:08:07.232Z,2.30
2018-04-28T14:10:36.279Z,2.30
2018-04-28T14:13:04.891Z,2.60
2018-04-28T14:15:34.286Z,2.53
2018-04-28T14:18:04.680Z,2.80
2018-04-28T14:20:33.319Z,2.80
2018-04-28T14:23:01.739Z,2.40
2018-04-28T14:25:30.602Z,2.30
2018-04-28T14:28:00.008Z,2.30
2018-04-28T14:30:28.184Z,2.73
2018-04-28T14:32:57.152Z,2.70
2018-04-28T14:35:26.357Z,2.70
2018-04-28T14:37:54.738Z,2.40
2018-04-28T14:40:23.195Z,3.10
2018-04-28T14:42:51.335Z,2.67
2018-04-28T14:45:20.523Z,2.30
2018-04-28T14:47:49.191Z,2.30
2018-04-28T14:50:17.339Z,2.37
2018-04-28T14:52:46.011Z,2.50
2018-04-28T14:55:14.750Z,3.03
2018-04-28T14:57:43.053Z,2.70
2018-04-28T15:00:11.505Z,2.33
2018-04-28T15:02:39.855Z,2.53
2018-04-28T15:05:09.487Z,2.30
2018-04-28T15:07:38.125Z,2.40
2018-04-28T15:10:06.950Z,2.30
2018-04-28T15:12:35.594Z,2.43
2018-04-28T15:15:04.120Z,2.30
2018-04-28T15:17:32.854Z,2.40
2018-04-28T15:20:01.460Z,2.50
2018-04-28T15:22:30.079Z,2.30
2018-04-28T15:24:58.249Z,2.20
2018-04-28T15:27:27.480Z,2.03
2018-04-28T15:29:55.903Z,2.43
2018-04-28T15:32:24.051Z,2.20
2018-04-28T15:34:52.687Z,2.30
2018-04-28T15:37:21.999Z,2.40
2018-04-28T15:39:50.138Z,2.80
2018-04-28T15:42:19.363Z,2.33
2018-04-28T15:44:48.329Z,2.30
2018-04-28T15:47:17.446Z,2.57
2018-04-28T15:49:46.090Z,2.73
2018-04-28T15:52:14.615Z,2.60
2018-04-28T15:54:43.441Z,2.57
2018-04-28T15:57:12.047Z,2.40
2018-04-28T15:59:40.222Z,2.10
2018-04-28T16:02:09.449Z,2.20
2018-04-28T16:04:38.082Z,2.27
2018-04-28T16:07:06.237Z,2.30
2018-04-28T16:09:34.730Z,2.63
2018-04-28T16:12:03.438Z,2.67
2018-04-28T16:14:32.042Z,2.40
2018-04-28T16:17:00.604Z,2.40
2018-04-28T16:19:29.233Z,2.10
2018-04-28T16:21:57.755Z,2.50
2018-04-28T16:24:25.890Z,2.77
2018-04-28T16:26:56.168Z,2.00
2018-04-28T16:29:26.157Z,2.20
2018-04-28T16:31:54.325Z,2.63
2018-04-28T16:34:22.999Z,2.73
2018-04-28T16:36:51.308Z,2.60
2018-04-28T16:39:19.906Z,2.17
2018-04-28T16:41:48.538Z,2.50
2018-04-28T16:44:17.152Z,2.27
2018-04-28T16:46:45.302Z,2.17
2018-04-28T16:49:14.450Z,2.43
2018-04-28T16:51:44.348Z,2.47
2018-04-28T16:54:13.502Z,2.30
2018-04-28T16:56:42.023Z,2.30
2018-04-28T16:59:10.256Z,2.70
2018-04-28T17:01:38.826Z,2.47
2018-04-28T17:04:07.922Z,2.40
2018-04-28T17:06:36.105Z,2.40
2018-04-28T17:09:05.269Z,2.30
2018-04-28T17:11:33.912Z,2.10
2018-04-28T17:14:02.543Z,2.80
2018-04-28T17:16:31.135Z,2.60
2018-04-28T17:18:59.809Z,2.40
2018-04-28T17:21:28.130Z,3.10
2018-04-28T17:23:57.262Z,2.60
2018-04-28T17:26:25.901Z,2.40
2018-04-28T17:28:55.667Z,2.57
2018-04-28T17:31:24.506Z,2.40
2018-04-28T17:33:53.151Z,2.50
2018-04-28T17:36:21.675Z,2.37
2018-04-28T17:38:49.821Z,2.33
2018-04-28T17:41:19.422Z,2.63
2018-04-28T17:43:48.055Z,2.60
2018-04-28T17:46:16.233Z,2.10
2018-04-28T17:48:45.260Z,2.20
2018-04-28T17:51:13.401Z,2.53
2018-04-28T17:53:41.980Z,2.17
2018-04-28T17:56:10.127Z,2.80
2018-04-28T17:58:38.719Z,2.90
2018-04-28T18:01:07.546Z,2.43
2018-04-28T18:03:35.979Z,2.47
2018-04-28T18:06:05.028Z,1.90
2018-04-28T18:08:33.566Z,1.87
2018-04-28T18:11:02.183Z,2.03
2018-04-28T18:13:30.397Z,2.07
2018-04-28T18:15:59.407Z,1.70
2018-04-28T18:18:27.867Z,1.60
2018-04-28T18:20:56.495Z,1.70
2018-04-28T18:23:24.990Z,2.20
2018-04-28T18:25:53.546Z,1.60
2018-04-28T18:28:22.697Z,1.70
2018-04-28T18:30:51.292Z,1.97
2018-04-28T18:33:20.897Z,1.97
2018-04-28T18:35:49.065Z,1.83
2018-04-28T18:38:18.251Z,1.83
2018-04-28T18:40:46.908Z,1.60
2018-04-28T18:43:15.313Z,2.00
2018-04-28T18:45:43.943Z,1.70
2018-04-28T18:48:12.559Z,1.87
2018-04-28T18:50:41.714Z,1.73
2018-04-28T18:53:10.148Z,2.03
2018-04-28T18:55:39.291Z,3.17
2018-04-28T18:58:08.346Z,3.77
2018-04-28T19:00:36.834Z,2.20
2018-04-28T19:03:05.022Z,2.10
2018-04-28T19:05:33.507Z,1.90
2018-04-28T19:08:01.998Z,1.90
2018-04-28T19:10:30.176Z,2.50
2018-04-28T19:12:59.465Z,2.70
2018-04-28T19:15:27.921Z,2.20
2018-04-28T19:17:56.971Z,2.00
2018-04-28T19:20:26.008Z,2.47
2018-04-28T19:22:54.191Z,1.90
2018-04-28T19:25:22.757Z,1.90
2018-04-28T19:27:51.144Z,2.10
2018-04-28T19:30:19.771Z,2.17
2018-04-28T19:32:48.403Z,2.00
2018-04-28T19:35:17.040Z,1.90
2018-04-28T19:37:45.698Z,1.83
2018-04-28T19:40:14.522Z,1.77
2018-04-28T19:42:42.740Z,1.80
2018-04-28T19:45:11.679Z,1.73
2018-04-28T19:47:41.667Z,1.93
2018-04-28T19:50:10.818Z,1.93
2018-04-28T19:52:39.014Z,2.00
2018-04-28T19:55:07.678Z,1.93
2018-04-28T19:57:35.993Z,1.83
2018-04-28T20:00:04.460Z,2.90
2018-04-28T20:02:33.043Z,2.40
2018-04-28T20:05:01.673Z,3.00
2018-04-28T20:07:30.707Z,3.00
2018-04-28T20:10:00.156Z,2.77
2018-04-28T20:12:29.250Z,3.37
2018-04-28T20:14:57.867Z,3.30
2018-04-28T20:17:26.003Z,2.73
2018-04-28T20:19:54.902Z,3.00
2018-04-28T20:22:36.915Z,3.40
2018-04-28T20:25:17.458Z,3.47
2018-04-28T20:27:45.876Z,4.40
2018-04-28T20:30:14.989Z,4.53
2018-04-28T20:32:43.083Z,4.53
2018-04-28T20:35:11.729Z,4.00
2018-04-28T20:37:40.081Z,4.07
2018-04-28T20:40:09.964Z,3.00
2018-04-28T20:42:38.917Z,3.50
2018-04-28T20:45:08.676Z,3.20
2018-04-28T20:47:36.854Z,2.73
2018-04-28T20:50:05.027Z,3.00
2018-04-28T20:52:34.252Z,3.03
2018-04-28T20:55:02.789Z,2.80
2018-04-28T20:57:32.560Z,2.90
2018-04-28T21:00:00.790Z,2.60
2018-04-28T21:02:28.938Z,3.00
2018-04-28T21:04:57.861Z,3.20
2018-04-28T21:07:27.713Z,2.83
2018-04-28T21:09:57.379Z,2.63
2018-04-28T21:12:25.894Z,2.70
2018-04-28T21:14:54.954Z,3.33
2018-04-28T21:17:23.131Z,2.80
2018-04-28T21:19:51.701Z,2.43
2018-04-28T21:22:20.853Z,2.80
2018-04-28T21:24:49.684Z,3.20
2018-04-28T21:27:18.078Z,2.73
2018-04-28T21:29:46.938Z,2.67
2018-04-28T21:32:15.582Z,2.57
2018-04-28T21:34:44.423Z,2.27
2018-04-28T21:37:12.843Z,2.53
2018-04-28T21:39:40.985Z,2.50
2018-04-28T21:42:10.835Z,3.13
2018-04-28T21:44:39.315Z,2.63
2018-04-28T21:47:07.738Z,2.67
2018-04-28T21:49:36.889Z,3.13
2018-04-28T21:52:06.816Z,2.90
2018-04-28T21:54:34.998Z,3.10
2018-04-28T21:57:03.660Z,2.97
2018-04-28T21:59:31.833Z,2.63
2018-04-28T22:02:00.501Z,2.70
2018-04-28T22:04:29.041Z,2.83
2018-04-28T22:06:57.657Z,2.80
2018-04-28T22:09:25.794Z,2.40
2018-04-28T22:11:54.738Z,2.33
2018-04-28T22:14:23.860Z,2.20
2018-04-28T22:16:52.707Z,2.40
2018-04-28T22:19:21.225Z,2.30
2018-04-28T22:21:49.647Z,2.30
2018-04-28T22:24:18.068Z,2.50
2018-04-28T22:26:46.226Z,2.63
2018-04-28T22:29:15.182Z,2.50
2018-04-28T22:31:43.852Z,2.57
2018-04-28T22:34:12.334Z,2.60
2018-04-28T22:36:40.905Z,2.77
2018-04-28T22:39:09.311Z,3.00
2018-04-28T22:41:39.418Z,3.00
2018-04-28T22:44:08.779Z,2.80
2018-04-28T22:46:36.919Z,2.57
2018-04-28T22:49:05.143Z,2.73
2018-04-28T22:51:33.943Z,2.97
2018-04-28T22:54:02.673Z,3.00
2018-04-28T22:56:31.094Z,3.07
2018-04-28T22:58:59.919Z,3.10
2018-04-28T23:01:28.090Z,3.20
2018-04-28T23:03:56.837Z,3.00
2018-04-28T23:06:25.621Z,2.90
2018-04-28T23:08:54.454Z,3.20
2018-04-28T23:11:22.795Z,2.83
2018-04-28T23:13:51.162Z,3.13
2018-04-28T23:16:19.613Z,3.17
2018-04-28T23:18:47.756Z,3.77
2018-04-28T23:21:17.186Z,3.70
2018-04-28T23:23:45.819Z,3.50
2018-04-28T23:26:13.965Z,3.60
2018-04-28T23:28:42.435Z,3.20
2018-04-28T23:31:10.627Z,3.27
2018-04-28T23:33:40.158Z,3.23
2018-04-28T23:36:08.758Z,3.40
2018-04-28T23:38:36.898Z,3.63
2018-04-28T23:41:05.354Z,2.90
2018-04-28T23:43:34.298Z,3.83
2018-04-28T23:46:02.759Z,3.27
2018-04-28T23:48:30.888Z,3.33
2018-04-28T23:51:00.295Z,3.70
2018-04-28T23:53:28.914Z,3.43
2018-04-28T23:55:58.011Z,3.20
2018-04-28T23:58:26.190Z,3.77
